createdAt,value
2022-10-18T00:04:33.458Z,101256.88
2022-10-18T00:14:35.298Z,101242.59
2022-10-18T00:24:36.870Z,101223.22
2022-10-18T00:34:39.610Z,101221.66
2022-10-18T00:44:41.075Z,101211.66
2022-10-18T00:54:44.586Z,101211.81
2022-10-18T01:04:46.760Z,101202.59
2022-10-18T01:14:53.648Z,101191.88
2022-10-18T01:24:59.610Z,101190.09
2022-10-18T01:35:07.505Z,101184.59
2022-10-18T01:45:09.413Z,101182.09
2022-10-18T01:55:11.438Z,101168.69
2022-10-18T02:05:25.201Z,101150.19
2022-10-18T02:15:31.288Z,101142.00
2022-10-18T02:25:34.085Z,101136.00
2022-10-18T02:35:37.864Z,101126.34
2022-10-18T02:45:39.449Z,101115.56
2022-10-18T02:55:41.055Z,101110.72
2022-10-18T03:05:42.544Z,101101.47
2022-10-18T03:15:44.106Z,101090.19
2022-10-18T03:25:46.449Z,101078.41
2022-10-18T03:35:48.096Z,101069.81
2022-10-18T03:45:49.816Z,101064.56
2022-10-18T03:55:55.042Z,101068.81
2022-10-18T04:05:57.065Z,101062.13
2022-10-18T04:15:58.873Z,101054.00
2022-10-18T04:26:00.429Z,101045.41
2022-10-18T04:36:02.036Z,101041.53
2022-10-18T04:46:03.599Z,101024.16
2022-10-18T04:56:05.343Z,101017.16
2022-10-18T05:06:06.880Z,101014.16
2022-10-18T05:16:09.996Z,101012.19
2022-10-18T05:26:12.142Z,101013.63
2022-10-18T05:36:13.682Z,101019.16
2022-10-18T05:46:16.475Z,101018.88
2022-10-18T05:56:18.565Z,101011.38
2022-10-18T06:06:20.574Z,101023.56
2022-10-18T06:16:22.862Z,101025.25
2022-10-18T06:26:24.589Z,101032.84
2022-10-18T06:36:26.211Z,101028.72
2022-10-18T06:46:27.760Z,101028.31
2022-10-18T06:56:30.330Z,101028.13
2022-10-18T07:06:31.974Z,100995.66
2022-10-18T07:16:33.768Z,100991.34
2022-10-18T07:26:35.803Z,100974.75
2022-10-18T07:36:37.558Z,100958.13
2022-10-18T07:46:44.235Z,100945.06
2022-10-18T07:57:04.482Z,100931.88
2022-10-18T08:07:09.123Z,100923.56
2022-10-18T08:17:10.963Z,100915.19
2022-10-18T08:37:52.561Z,100882.94
2022-10-18T08:47:57.459Z,100884.00
2022-10-18T08:58:00.094Z,100867.78
2022-10-18T09:08:02.686Z,100851.25
2022-10-18T09:18:14.009Z,100836.19
2022-10-18T09:28:16.804Z,100819.22
2022-10-18T09:38:21.689Z,100808.97
2022-10-18T09:48:33.085Z,100783.38
2022-10-18T09:58:44.811Z,100765.81
2022-10-18T10:08:53.593Z,100750.59
2022-10-18T10:19:01.436Z,100730.78
2022-10-18T10:40:27.662Z,100706.03
2022-10-18T11:13:33.887Z,100650.00
2022-10-18T11:23:43.492Z,100636.94
2022-10-18T11:34:08.152Z,100619.31
2022-10-18T11:44:20.425Z,100607.59
2022-10-18T12:04:59.839Z,100568.63
2022-10-18T12:15:16.246Z,100551.81
2022-10-18T12:25:22.556Z,100544.81
2022-10-18T12:35:28.730Z,100536.41
2022-10-18T12:45:35.632Z,100529.59
2022-10-18T12:55:38.916Z,100512.94
2022-10-18T13:06:04.285Z,100497.97
2022-10-18T13:16:30.195Z,100478.75
2022-10-18T13:26:43.702Z,100470.97
2022-10-18T13:36:55.463Z,100447.22
2022-10-18T13:46:59.873Z,100448.03
2022-10-18T13:57:13.926Z,100443.34
2022-10-18T14:07:19.336Z,100422.34
2022-10-18T14:17:29.886Z,100405.44
2022-10-18T14:27:33.461Z,100399.78
2022-10-18T14:37:36.122Z,100381.34
2022-10-18T14:47:38.099Z,100365.91
2022-10-18T14:57:39.866Z,100358.34
2022-10-18T15:07:41.719Z,100346.22
2022-10-18T15:17:43.659Z,100336.41
2022-10-18T15:27:47.360Z,100329.50
2022-10-18T15:37:49.483Z,100330.25
2022-10-18T15:47:58.468Z,100330.19
2022-10-18T15:58:11.194Z,100331.88
2022-10-18T16:08:20.002Z,100318.19
2022-10-18T16:18:22.234Z,100304.09
2022-10-18T16:28:25.760Z,100297.13
2022-10-18T16:49:47.712Z,100274.72
2022-10-18T16:59:49.943Z,100262.75
2022-10-18T17:09:53.317Z,100245.16
2022-10-18T17:19:59.261Z,100229.44
2022-10-18T17:30:01.048Z,100215.38
2022-10-18T17:40:02.914Z,100212.28
2022-10-18T17:50:04.723Z,100198.16
2022-10-18T18:00:08.219Z,100188.56
2022-10-18T18:10:10.038Z,100178.72
2022-10-18T18:20:11.919Z,100176.03
2022-10-18T18:30:14.633Z,100170.72
2022-10-18T18:40:16.404Z,100147.78
2022-10-18T18:50:19.038Z,100137.53
2022-10-18T19:00:21.318Z,100119.19
2022-10-18T19:10:22.931Z,100113.84
2022-10-18T19:20:24.667Z,100110.34
2022-10-18T19:30:26.494Z,100090.47
2022-10-18T19:40:28.817Z,100068.22
2022-10-18T19:50:30.520Z,100055.03
2022-10-18T20:00:35.299Z,100052.88
2022-10-18T20:10:36.876Z,100040.50
2022-10-18T20:20:38.534Z,100022.78
2022-10-18T20:30:40.259Z,100017.59
2022-10-18T20:40:41.860Z,99994.75
2022-10-18T20:50:43.407Z,99971.66
2022-10-18T21:00:45.195Z,99973.22
2022-10-18T21:10:46.996Z,99952.22
2022-10-18T21:20:48.576Z,99938.44
2022-10-18T21:30:50.336Z,99932.84
2022-10-18T21:40:51.856Z,99920.53
2022-10-18T21:50:53.844Z,99898.47
2022-10-18T22:00:55.512Z,99882.84
2022-10-18T22:10:57.900Z,99853.78
2022-10-18T22:21:00.515Z,99835.72
2022-10-18T22:31:02.506Z,99816.59
2022-10-18T22:41:06.884Z,99801.44
2022-10-18T22:51:08.949Z,99789.47
2022-10-18T23:01:12.058Z,99784.91
2022-10-18T23:11:13.770Z,99752.66
2022-10-18T23:21:15.626Z,99748.56
2022-10-18T23:31:22.115Z,99727.19
2022-10-18T23:41:24.057Z,99717.63
2022-10-18T23:51:25.707Z,99704.50
